Weather observations for the past three days for
Tupelo, Tupelo Regional Airport
Imperial (Metric)
Date Time (cdt) Wind (mph) Vis. (mi.) Weather Sky Cond. Temperature (ºF) Relative Humidity Wind Chill (°F) Heat Index (°F) Pressure Precipitation (in)
Air Dwpt 6 hour altimeter (in) sea level (mb) 1 hr 3 hr 6 hr
Max. Min.
04 16:53 S 16 G 24 10.00 A Few Clouds FEW070 79 50 36% 79 29.88 1011.4
04 15:53 SW 14 G 25 10.00 A Few Clouds FEW070 79 50 36% 79 29.9 1012.1
04 14:53 SW 14 G 22 10.00 A Few Clouds FEW070 80.1 50 35% 80 29.92 1012.9
04 13:53 S 14 G 22 10.00 A Few Clouds FEW065 79 51.1 38% 79 29.94 1013.6
04 12:53 SW 12 10.00 Fair CLR 77 51.1 78.1 51.1 40% 78 29.96 1014.1
04 11:53 SW 9 G 17 10.00 Fair CLR 75.9 52 43% 78 29.98 1014.9
04 10:53 SW 8 10.00 Fair CLR 73.9 53.1 48% 30 1015.7
04 09:53 SW 8 10.00 Fair CLR 71.1 52 51% 30.01 1015.8
04 08:53 S 6 10.00 Fair CLR 64 53.1 68% 30.01 1016.0
04 07:53 S 6 10.00 Fair CLR 57 51.1 81% 30.02 1016.2
04 06:53 S 6 10.00 Fair CLR 51.1 48 53.1 50 89% 30.01 1015.9
04 05:53 Calm 10.00 Fair CLR 52 46.9 83% 29.99 1015.4
04 04:53 S 3 10.00 Fair CLR 50 48 93% 30 1015.5
04 03:53 Calm 10.00 Fair CLR 51.1 48 89% 29.99 1015.3
04 02:53 S 6 10.00 Fair CLR 51.1 46.9 86% 29.99 1015.5
04 01:53 S 6 10.00 Fair CLR 52 46.9 83% 30.02 1016.3
04 00:53 S 5 10.00 Fair CLR 52 48 70 52 86% 30.04 1017.1
03 23:53 S 6 10.00 Fair CLR 53.1 46.9 80% 30.03 1016.8
03 22:53 S 3 10.00 Fair CLR 55.9 48 75% 30.04 1017.2
03 21:53 S 5 10.00 Fair CLR 57 46.9 69% 30.05 1017.4
03 20:53 Calm 10.00 Fair CLR 60.1 46.9 62% 30.04 1017.1
03 19:53 Calm 10.00 Fair CLR 64 45 50% 30.03 1016.6
03 18:53 SW 3 10.00 Fair CLR 70 42.1 73 66.9 37% 30.03 1016.6
03 17:53 SW 7 10.00 Fair CLR 72 39.9 31% 30.04 1017.0
03 16:53 W 6 10.00 Fair CLR 72 39.9 31% 30.05 1017.5
03 15:53 Vrbl 7 G 16 10.00 Fair CLR 72 41 33% 30.08 1018.6
03 14:53 Calm 10.00 Fair CLR 71.1 42.1 35% 30.11 1019.5
03 13:53 Vrbl 3 10.00 Fair CLR 69.1 37.9 32% 30.15 1020.6
03 12:53 S 8 10.00 Fair CLR 68 42.1 69.1 46 39% 30.17 1021.6
03 11:53 Vrbl 3 10.00 Fair CLR 64.9 39 39% 30.2 1022.4
03 10:53 Calm 10.00 Fair CLR 63 39 41% 30.21 1022.8
03 09:53 S 3 10.00 Fair CLR 60.1 42.1 52% 30.21 1022.9
03 08:53 Vrbl 5 10.00 Fair CLR 55.9 44.1 65% 30.21 1022.7
03 07:53 E 5 10.00 Fair CLR 51.1 45 80% 30.21 1022.7
03 06:53 Calm 10.00 Fair CLR 46 44.1 51.1 43 93% 30.19 1022.1
03 05:53 Calm 10.00 Fair CLR 44.1 42.1 93% 30.17 1021.4
03 04:53 N 3 10.00 Fair CLR 44.1 42.1 93% 30.16 1021.0
03 03:53 Calm 10.00 Fair CLR 46 43 89% 30.15 1020.7
03 02:53 Calm 10.00 Fair CLR 48 43 83% 30.14 1020.4
03 01:53 NE 3 10.00 Fair CLR 50 42.1 74% 30.14 1020.3
03 00:53 NE 6 10.00 Fair CLR 51.1 42.1 66.9 51.1 71% 30.13 1020.3
02 23:53 NE 9 10.00 Fair CLR 54 42.1 64% 30.12 1019.8
02 22:53 NE 8 10.00 Fair CLR 52 42.1 69% 30.11 1019.3
02 21:53 N 3 10.00 Fair CLR 55 39.9 57% 30.09 1018.6
02 20:53 NW 3 10.00 Fair CLR 60.1 39 46% 30.06 1017.8
02 19:53 NW 5 10.00 Fair CLR 63 37.9 40% 30.04 1016.9
02 18:53 NW 6 10.00 A Few Clouds FEW100 66.9 37.9 71.1 64.9 35% 30.02 1016.2
02 17:53 NW 10 10.00 Partly Cloudy FEW080 SCT100 68 39 35% 30.02 1016.3
02 16:53 Vrbl 6 10.00 Mostly Cloudy BKN100 68 37 32% 30.01 1016.1
02 15:53 N 10 10.00 Overcast BKN080 OVC095 66.9 37 33% 30.02 1016.4
02 14:53 Vrbl 6 10.00 A Few Clouds FEW095 68 37 32% 30.04 1017.0
02 13:53 NW 13 10.00 Mostly Cloudy BKN080 69.1 36 30% 30.05 1017.3
02 12:53 N 16 G 25 10.00 Fair CLR 68 35.1 68 48 30% 30.07 1017.8
02 11:53 NE 7 10.00 Fair CLR 66 39 37% 30.07 1018.2
02 10:53 NE 9 10.00 Fair CLR 63 37.9 40% 30.09 1018.7
02 09:53 NE 9 10.00 A Few Clouds FEW002 60.1 39 46% 30.08 1018.5
02 08:53 N 9 10.00 Fair CLR 57 41 55% 30.07 1017.9
02 07:53 N 8 10.00 Fair CLR 53.1 41 64% 30.05 1017.4
02 06:53 N 6 10.00 Fair CLR 48 41 57 46 77% 46 30.04 1017.0
02 05:53 N 6 10.00 Fair CLR 48 39.9 74% 46 30.01 1016.0
02 04:53 N 6 10.00 Fair CLR 51.1 39.9 66% 30 1015.7
02 03:53 N 7 10.00 Fair CLR 51.1 41 69% 30 1015.8
02 02:53 N 7 10.00 Fair CLR 53.1 37.9 57% 30 1015.6
02 01:53 N 9 10.00 Fair CLR 55 37 51% 30.01 1015.9
02 00:53 NE 8 10.00 A Few Clouds FEW120 55.9 39.9 63 55.9 55% 30.03 1016.7
01 23:53 N 6 10.00 Fair CLR 55.9 43 62% 30.01 1016.0
01 22:53 N 9 10.00 Fair CLR 57 43 60% 29.98 1015.1
01 21:53 N 10 10.00 Fair CLR 57.9 46 65% 29.98 1015.0
01 20:53 N 8 10.00 Fair CLR 59 48 67% 30 1015.6
01 19:53 N 3 10.00 Fair CLR 60.1 48.9 67% 29.97 1014.7
01 18:53 N 3 10.00 Fair CLR 62.1 50 64.9 62.1 65% 29.96 1014.3
Date Time (cdt) Wind (mph) Vis. (mi.) Weather Sky Cond. Air Dwpt Max. Min. Relative Humidity Wind Chill (°F) Heat Index (°F) altimeter (in) sea level (mb) 1 hr 3 hr 6 hr
6 hour
Temperature (ºF) Pressure Precipitation (in)